Terminal Aerodrome Forecast
Issued by NWS

Current Version | Previous Version | Text Only | Print | Product List | Glossary On
Versions: 1 2 3 4 5 6 7 8 9 10 11 12 13 14 15 16 17
000
FTUS42 KTBW 232325
TAFLAL
TAF
KLAL 232325Z 2400/2424 24012G18KT P6SM SCT050 OVC250
     FM240100 23008KT P6SM SCT025 SCT050 OVC250
     FM240900 20011KT P6SM VCTS SCT025CB OVC050
     FM241500 21016G23KT 5SM -RA VCTS SCT030CB OVC050=

USA.gov is the U.S. government's official web portal to all federal, state and local government web resources and services.